sensor_id;sensor_type;location;lat;lon;timestamp;temperature;humidity
25332;DHT22;13284;52.748;13.452;2023-07-20T00:01:28;15.50;99.90
25332;DHT22;13284;52.748;13.452;2023-07-20T00:03:53;15.50;99.90
25332;DHT22;13284;52.748;13.452;2023-07-20T00:06:22;15.50;99.90
25332;DHT22;13284;52.748;13.452;2023-07-20T00:08:49;15.50;99.90
25332;DHT22;13284;52.748;13.452;2023-07-20T00:11:14;15.50;99.90
25332;DHT22;13284;52.748;13.452;2023-07-20T00:13:40;15.50;99.90
25332;DHT22;13284;52.748;13.452;2023-07-20T00:16:06;15.40;99.90
25332;DHT22;13284;52.748;13.452;2023-07-20T00:18:31;15.30;99.90
25332;DHT22;13284;52.748;13.452;2023-07-20T00:20:57;15.20;99.90
25332;DHT22;13284;52.748;13.452;2023-07-20T00:23:25;15.10;99.90
25332;DHT22;13284;52.748;13.452;2023-07-20T00:25:51;15.20;99.90
25332;DHT22;13284;52.748;13.452;2023-07-20T00:28:16;15.20;99.90
25332;DHT22;13284;52.748;13.452;2023-07-20T00:30:42;15.30;99.90
25332;DHT22;13284;52.748;13.452;2023-07-20T00:33:10;15.30;99.90
25332;DHT22;13284;52.748;13.452;2023-07-20T00:35:37;15.30;99.90
25332;DHT22;13284;52.748;13.452;2023-07-20T00:38:03;15.30;99.90
25332;DHT22;13284;52.748;13.452;2023-07-20T00:40:28;15.30;99.90
25332;DHT22;13284;52.748;13.452;2023-07-20T00:43:00;15.30;99.90
25332;DHT22;13284;52.748;13.452;2023-07-20T00:45:26;15.40;99.90
25332;DHT22;13284;52.748;13.452;2023-07-20T00:47:51;15.30;99.90
25332;DHT22;13284;52.748;13.452;2023-07-20T00:50:17;15.30;99.90
25332;DHT22;13284;52.748;13.452;2023-07-20T00:52:43;15.20;99.90
25332;DHT22;13284;52.748;13.452;2023-07-20T00:55:09;15.20;99.90
25332;DHT22;13284;52.748;13.452;2023-07-20T00:57:35;15.20;99.90
25332;DHT22;13284;52.748;13.452;2023-07-20T01:00:00;15.20;99.90
25332;DHT22;13284;52.748;13.452;2023-07-20T01:02:26;15.10;99.90
25332;DHT22;13284;52.748;13.452;2023-07-20T01:04:52;15.20;99.90
25332;DHT22;13284;52.748;13.452;2023-07-20T01:07:27;15.20;99.90
25332;DHT22;13284;52.748;13.452;2023-07-20T01:10:32;15.40;99.90
25332;DHT22;13284;52.748;13.452;2023-07-20T01:13:00;15.30;99.90
25332;DHT22;13284;52.748;13.452;2023-07-20T01:15:26;15.30;99.90
25332;DHT22;13284;52.748;13.452;2023-07-20T01:17:52;15.30;99.90
25332;DHT22;13284;52.748;13.452;2023-07-20T01:20:20;15.40;99.90
25332;DHT22;13284;52.748;13.452;2023-07-20T01:23:42;15.40;99.90
25332;DHT22;13284;52.748;13.452;2023-07-20T01:31:43;15.40;99.90
25332;DHT22;13284;52.748;13.452;2023-07-20T01:34:11;15.60;99.90
25332;DHT22;13284;52.748;13.452;2023-07-20T01:36:39;15.60;99.90
25332;DHT22;13284;52.748;13.452;2023-07-20T01:39:06;15.50;99.90
25332;DHT22;13284;52.748;13.452;2023-07-20T01:41:33;15.60;99.90
25332;DHT22;13284;52.748;13.452;2023-07-20T01:43:59;15.60;99.90
25332;DHT22;13284;52.748;13.452;2023-07-20T01:46:27;15.60;99.90
25332;DHT22;13284;52.748;13.452;2023-07-20T01:48:53;15.60;99.90
25332;DHT22;13284;52.748;13.452;2023-07-20T01:51:19;15.60;99.90
25332;DHT22;13284;52.748;13.452;2023-07-20T01:53:45;15.60;99.90
25332;DHT22;13284;52.748;13.452;2023-07-20T01:56:10;15.60;99.90
25332;DHT22;13284;52.748;13.452;2023-07-20T01:58:37;15.60;99.90
25332;DHT22;13284;52.748;13.452;2023-07-20T02:01:03;15.60;99.90
25332;DHT22;13284;52.748;13.452;2023-07-20T02:03:29;15.50;99.90
25332;DHT22;13284;52.748;13.452;2023-07-20T02:05:54;15.50;99.90
25332;DHT22;13284;52.748;13.452;2023-07-20T02:08:20;15.50;99.90
25332;DHT22;13284;52.748;13.452;2023-07-20T02:10:47;15.50;99.90
25332;DHT22;13284;52.748;13.452;2023-07-20T02:13:12;15.50;99.90
25332;DHT22;13284;52.748;13.452;2023-07-20T02:15:38;15.50;99.90
25332;DHT22;13284;52.748;13.452;2023-07-20T02:18:04;15.40;99.90
25332;DHT22;13284;52.748;13.452;2023-07-20T02:20:29;15.40;99.90
25332;DHT22;13284;52.748;13.452;2023-07-20T02:22:55;15.50;99.90
25332;DHT22;13284;52.748;13.452;2023-07-20T02:25:21;15.50;99.90
25332;DHT22;13284;52.748;13.452;2023-07-20T02:27:46;15.40;99.90
25332;DHT22;13284;52.748;13.452;2023-07-20T02:30:12;15.30;99.90
25332;DHT22;13284;52.748;13.452;2023-07-20T02:32:38;15.40;99.90
25332;DHT22;13284;52.748;13.452;2023-07-20T02:35:05;15.40;99.90
25332;DHT22;13284;52.748;13.452;2023-07-20T02:37:31;15.40;99.90
25332;DHT22;13284;52.748;13.452;2023-07-20T02:39:56;15.40;99.90
25332;DHT22;13284;52.748;13.452;2023-07-20T02:42:22;15.50;99.90
25332;DHT22;13284;52.748;13.452;2023-07-20T02:44:49;15.50;99.90
25332;DHT22;13284;52.748;13.452;2023-07-20T02:47:17;15.60;99.90
25332;DHT22;13284;52.748;13.452;2023-07-20T02:49:43;15.60;99.90
25332;DHT22;13284;52.748;13.452;2023-07-20T02:52:09;15.50;99.90
25332;DHT22;13284;52.748;13.452;2023-07-20T02:54:34;15.60;99.90
25332;DHT22;13284;52.748;13.452;2023-07-20T02:57:00;15.60;99.90
25332;DHT22;13284;52.748;13.452;2023-07-20T02:59:26;15.60;99.90
25332;DHT22;13284;52.748;13.452;2023-07-20T03:01:52;15.60;99.90
25332;DHT22;13284;52.748;13.452;2023-07-20T03:04:17;15.60;99.90
25332;DHT22;13284;52.748;13.452;2023-07-20T03:06:43;15.60;99.90
25332;DHT22;13284;52.748;13.452;2023-07-20T03:09:08;15.60;99.90
25332;DHT22;13284;52.748;13.452;2023-07-20T03:11:34;15.60;99.90
25332;DHT22;13284;52.748;13.452;2023-07-20T03:14:00;15.70;99.90
25332;DHT22;13284;52.748;13.452;2023-07-20T03:16:25;15.60;99.90
25332;DHT22;13284;52.748;13.452;2023-07-20T03:18:52;15.70;99.90
25332;DHT22;13284;52.748;13.452;2023-07-20T03:21:17;15.70;99.90
25332;DHT22;13284;52.748;13.452;2023-07-20T03:23:43;15.70;99.90
25332;DHT22;13284;52.748;13.452;2023-07-20T03:26:09;15.80;99.90
25332;DHT22;13284;52.748;13.452;2023-07-20T03:28:35;15.80;99.90
25332;DHT22;13284;52.748;13.452;2023-07-20T03:31:01;15.80;99.90
25332;DHT22;13284;52.748;13.452;2023-07-20T03:33:28;15.70;99.90
25332;DHT22;13284;52.748;13.452;2023-07-20T03:35:54;15.70;99.90
25332;DHT22;13284;52.748;13.452;2023-07-20T03:38:20;15.70;99.90
25332;DHT22;13284;52.748;13.452;2023-07-20T03:40:56;15.70;99.90
25332;DHT22;13284;52.748;13.452;2023-07-20T03:43:23;15.70;99.90
25332;DHT22;13284;52.748;13.452;2023-07-20T03:45:49;15.80;99.90
25332;DHT22;13284;52.748;13.452;2023-07-20T03:48:16;15.80;99.90
25332;DHT22;13284;52.748;13.452;2023-07-20T03:50:41;15.70;99.90
25332;DHT22;13284;52.748;13.452;2023-07-20T03:53:07;15.80;99.90
25332;DHT22;13284;52.748;13.452;2023-07-20T03:55:32;15.70;99.90
25332;DHT22;13284;52.748;13.452;2023-07-20T03:57:58;15.80;99.90
25332;DHT22;13284;52.748;13.452;2023-07-20T04:00:23;15.80;99.90
25332;DHT22;13284;52.748;13.452;2023-07-20T04:02:49;15.90;99.90
25332;DHT22;13284;52.748;13.452;2023-07-20T04:05:15;15.80;99.90
25332;DHT22;13284;52.748;13.452;2023-07-20T04:07:40;16.00;99.90
25332;DHT22;13284;52.748;13.452;2023-07-20T04:10:06;15.90;99.90
25332;DHT22;13284;52.748;13.452;2023-07-20T04:12:32;15.90;99.90
25332;DHT22;13284;52.748;13.452;2023-07-20T04:14:57;15.90;99.90
25332;DHT22;13284;52.748;13.452;2023-07-20T04:17:23;15.90;99.90
25332;DHT22;13284;52.748;13.452;2023-07-20T04:19:48;15.90;99.90
25332;DHT22;13284;52.748;13.452;2023-07-20T04:22:14;16.00;99.90
25332;DHT22;13284;52.748;13.452;2023-07-20T04:24:41;16.00;99.90
25332;DHT22;13284;52.748;13.452;2023-07-20T04:27:07;16.00;99.90
25332;DHT22;13284;52.748;13.452;2023-07-20T04:29:33;16.10;99.90
25332;DHT22;13284;52.748;13.452;2023-07-20T04:31:58;16.10;99.90
25332;DHT22;13284;52.748;13.452;2023-07-20T04:34:24;16.10;99.90
25332;DHT22;13284;52.748;13.452;2023-07-20T04:36:49;16.10;99.90
25332;DHT22;13284;52.748;13.452;2023-07-20T04:39:15;16.20;99.90
25332;DHT22;13284;52.748;13.452;2023-07-20T04:41:40;16.20;99.90
25332;DHT22;13284;52.748;13.452;2023-07-20T04:44:06;16.20;99.90
25332;DHT22;13284;52.748;13.452;2023-07-20T04:46:31;16.30;99.90
25332;DHT22;13284;52.748;13.452;2023-07-20T04:48:57;16.40;99.90
25332;DHT22;13284;52.748;13.452;2023-07-20T04:51:23;16.30;99.90
25332;DHT22;13284;52.748;13.452;2023-07-20T04:53:51;16.40;99.90
25332;DHT22;13284;52.748;13.452;2023-07-20T04:56:17;16.40;99.90
25332;DHT22;13284;52.748;13.452;2023-07-20T04:58:43;16.50;99.90
25332;DHT22;13284;52.748;13.452;2023-07-20T05:01:08;16.50;99.90
25332;DHT22;13284;52.748;13.452;2023-07-20T05:03:34;16.50;99.90
25332;DHT22;13284;52.748;13.452;2023-07-20T05:05:59;16.60;99.90
25332;DHT22;13284;52.748;13.452;2023-07-20T05:08:25;16.70;99.90
25332;DHT22;13284;52.748;13.452;2023-07-20T05:10:50;16.70;99.90
25332;DHT22;13284;52.748;13.452;2023-07-20T05:13:16;16.70;99.90
25332;DHT22;13284;52.748;13.452;2023-07-20T05:15:41;16.60;99.90
25332;DHT22;13284;52.748;13.452;2023-07-20T05:18:07;16.50;99.90
25332;DHT22;13284;52.748;13.452;2023-07-20T05:20:34;16.60;99.90
25332;DHT22;13284;52.748;13.452;2023-07-20T05:23:00;16.60;99.90
25332;DHT22;13284;52.748;13.452;2023-07-20T05:25:26;16.70;99.90
25332;DHT22;13284;52.748;13.452;2023-07-20T05:27:52;16.70;99.90
25332;DHT22;13284;52.748;13.452;2023-07-20T05:30:18;16.70;99.90
25332;DHT22;13284;52.748;13.452;2023-07-20T05:32:44;16.70;99.90
25332;DHT22;13284;52.748;13.452;2023-07-20T05:35:12;16.70;99.90
25332;DHT22;13284;52.748;13.452;2023-07-20T05:37:38;16.70;99.90
25332;DHT22;13284;52.748;13.452;2023-07-20T05:40:05;16.70;99.90
25332;DHT22;13284;52.748;13.452;2023-07-20T05:42:30;16.80;99.90
25332;DHT22;13284;52.748;13.452;2023-07-20T05:44:56;16.90;99.90
25332;DHT22;13284;52.748;13.452;2023-07-20T05:47:21;16.90;99.90
25332;DHT22;13284;52.748;13.452;2023-07-20T05:49:47;16.90;99.90
25332;DHT22;13284;52.748;13.452;2023-07-20T05:52:13;16.90;99.90
25332;DHT22;13284;52.748;13.452;2023-07-20T05:54:38;16.90;99.90
25332;DHT22;13284;52.748;13.452;2023-07-20T05:57:04;16.90;99.90
25332;DHT22;13284;52.748;13.452;2023-07-20T05:59:30;16.90;99.90
25332;DHT22;13284;52.748;13.452;2023-07-20T06:01:55;17.10;99.90
25332;DHT22;13284;52.748;13.452;2023-07-20T06:04:21;17.40;99.90
25332;DHT22;13284;52.748;13.452;2023-07-20T06:06:46;17.40;99.90
25332;DHT22;13284;52.748;13.452;2023-07-20T06:09:13;17.30;99.90
25332;DHT22;13284;52.748;13.452;2023-07-20T06:11:39;17.20;99.90
25332;DHT22;13284;52.748;13.452;2023-07-20T06:14:05;17.20;99.90
25332;DHT22;13284;52.748;13.452;2023-07-20T06:16:30;17.50;99.90
25332;DHT22;13284;52.748;13.452;2023-07-20T06:18:56;17.50;99.90
25332;DHT22;13284;52.748;13.452;2023-07-20T06:21:22;17.80;99.90
25332;DHT22;13284;52.748;13.452;2023-07-20T06:23:47;17.80;99.90
25332;DHT22;13284;52.748;13.452;2023-07-20T06:26:13;17.90;99.90
25332;DHT22;13284;52.748;13.452;2023-07-20T06:28:38;18.20;99.90
25332;DHT22;13284;52.748;13.452;2023-07-20T06:31:04;17.90;99.90
25332;DHT22;13284;52.748;13.452;2023-07-20T06:33:29;18.00;99.90
25332;DHT22;13284;52.748;13.452;2023-07-20T06:35:55;18.20;99.90
25332;DHT22;13284;52.748;13.452;2023-07-20T06:38:22;18.50;99.90
25332;DHT22;13284;52.748;13.452;2023-07-20T06:40:49;18.70;99.90
25332;DHT22;13284;52.748;13.452;2023-07-20T06:43:15;18.60;99.90
25332;DHT22;13284;52.748;13.452;2023-07-20T06:45:41;18.60;99.90
25332;DHT22;13284;52.748;13.452;2023-07-20T06:48:07;18.90;99.90
25332;DHT22;13284;52.748;13.452;2023-07-20T06:50:32;18.60;99.90
25332;DHT22;13284;52.748;13.452;2023-07-20T06:52:58;18.80;99.90
25332;DHT22;13284;52.748;13.452;2023-07-20T06:55:24;18.80;99.90
25332;DHT22;13284;52.748;13.452;2023-07-20T06:57:49;18.60;99.90
25332;DHT22;13284;52.748;13.452;2023-07-20T07:00:15;18.50;99.90
25332;DHT22;13284;52.748;13.452;2023-07-20T07:02:41;18.40;99.90
25332;DHT22;13284;52.748;13.452;2023-07-20T07:05:06;18.20;99.90
25332;DHT22;13284;52.748;13.452;2023-07-20T07:07:32;18.40;99.90
25332;DHT22;13284;52.748;13.452;2023-07-20T07:09:57;18.50;99.90
25332;DHT22;13284;52.748;13.452;2023-07-20T07:12:23;18.60;99.90
25332;DHT22;13284;52.748;13.452;2023-07-20T07:14:48;18.50;99.90
25332;DHT22;13284;52.748;13.452;2023-07-20T07:17:14;18.50;99.90
25332;DHT22;13284;52.748;13.452;2023-07-20T07:19:39;18.80;99.90
25332;DHT22;13284;52.748;13.452;2023-07-20T07:22:06;19.00;99.90
25332;DHT22;13284;52.748;13.452;2023-07-20T07:24:31;19.10;99.90
25332;DHT22;13284;52.748;13.452;2023-07-20T07:27:00;18.90;99.90
25332;DHT22;13284;52.748;13.452;2023-07-20T07:29:25;19.10;99.90
25332;DHT22;13284;52.748;13.452;2023-07-20T07:31:51;19.30;99.90
25332;DHT22;13284;52.748;13.452;2023-07-20T07:34:17;19.30;99.90
25332;DHT22;13284;52.748;13.452;2023-07-20T07:36:43;19.30;99.90
25332;DHT22;13284;52.748;13.452;2023-07-20T07:39:09;19.40;99.90
25332;DHT22;13284;52.748;13.452;2023-07-20T07:41:35;19.20;99.90
25332;DHT22;13284;52.748;13.452;2023-07-20T07:44:00;19.30;99.90
25332;DHT22;13284;52.748;13.452;2023-07-20T07:46:26;19.30;99.90
25332;DHT22;13284;52.748;13.452;2023-07-20T07:48:51;19.20;99.90
25332;DHT22;13284;52.748;13.452;2023-07-20T07:51:17;19.00;99.90
25332;DHT22;13284;52.748;13.452;2023-07-20T07:53:42;18.90;99.90
25332;DHT22;13284;52.748;13.452;2023-07-20T07:56:09;19.10;99.90
25332;DHT22;13284;52.748;13.452;2023-07-20T07:58:34;19.30;99.90
25332;DHT22;13284;52.748;13.452;2023-07-20T08:01:00;19.80;99.90
25332;DHT22;13284;52.748;13.452;2023-07-20T08:03:26;20.00;99.90
25332;DHT22;13284;52.748;13.452;2023-07-20T08:05:54;20.10;99.90
25332;DHT22;13284;52.748;13.452;2023-07-20T08:08:20;20.50;99.90
25332;DHT22;13284;52.748;13.452;2023-07-20T08:10:46;20.70;99.90
25332;DHT22;13284;52.748;13.452;2023-07-20T08:13:12;20.60;99.90
25332;DHT22;13284;52.748;13.452;2023-07-20T08:15:38;20.50;99.90
25332;DHT22;13284;52.748;13.452;2023-07-20T08:18:03;20.80;99.90
25332;DHT22;13284;52.748;13.452;2023-07-20T08:20:29;20.80;99.90
25332;DHT22;13284;52.748;13.452;2023-07-20T08:22:55;21.40;99.90
25332;DHT22;13284;52.748;13.452;2023-07-20T08:25:25;21.00;99.90
25332;DHT22;13284;52.748;13.452;2023-07-20T08:27:50;20.50;99.90
25332;DHT22;13284;52.748;13.452;2023-07-20T08:30:16;20.40;99.90
25332;DHT22;13284;52.748;13.452;2023-07-20T08:32:42;20.80;99.90
25332;DHT22;13284;52.748;13.452;2023-07-20T08:35:08;21.40;99.90
25332;DHT22;13284;52.748;13.452;2023-07-20T08:37:34;21.80;99.90
25332;DHT22;13284;52.748;13.452;2023-07-20T08:39:59;22.00;99.90
25332;DHT22;13284;52.748;13.452;2023-07-20T08:42:25;21.80;99.90
25332;DHT22;13284;52.748;13.452;2023-07-20T08:44:52;21.50;99.90
25332;DHT22;13284;52.748;13.452;2023-07-20T08:47:18;21.00;99.90
25332;DHT22;13284;52.748;13.452;2023-07-20T08:49:48;20.70;99.90
25332;DHT22;13284;52.748;13.452;2023-07-20T08:52:14;20.50;99.90
25332;DHT22;13284;52.748;13.452;2023-07-20T08:54:40;20.50;99.90
25332;DHT22;13284;52.748;13.452;2023-07-20T08:57:06;20.30;99.90
25332;DHT22;13284;52.748;13.452;2023-07-20T08:59:32;20.00;99.90
25332;DHT22;13284;52.748;13.452;2023-07-20T09:02:00;19.80;99.90
25332;DHT22;13284;52.748;13.452;2023-07-20T09:04:26;19.40;99.90
25332;DHT22;13284;52.748;13.452;2023-07-20T09:06:52;19.70;99.90
25332;DHT22;13284;52.748;13.452;2023-07-20T09:09:17;19.70;99.90
25332;DHT22;13284;52.748;13.452;2023-07-20T09:11:46;19.60;99.90
25332;DHT22;13284;52.748;13.452;2023-07-20T09:14:11;19.30;99.90
25332;DHT22;13284;52.748;13.452;2023-07-20T09:16:53;19.30;99.90
25332;DHT22;13284;52.748;13.452;2023-07-20T09:19:20;19.40;99.90
25332;DHT22;13284;52.748;13.452;2023-07-20T09:21:49;19.60;99.90
25332;DHT22;13284;52.748;13.452;2023-07-20T09:24:17;19.70;99.90
25332;DHT22;13284;52.748;13.452;2023-07-20T09:26:44;19.90;99.90
25332;DHT22;13284;52.748;13.452;2023-07-20T09:29:10;19.90;99.90
25332;DHT22;13284;52.748;13.452;2023-07-20T09:31:36;19.90;99.90
25332;DHT22;13284;52.748;13.452;2023-07-20T09:34:02;20.00;99.90
25332;DHT22;13284;52.748;13.452;2023-07-20T09:36:29;20.10;99.90
25332;DHT22;13284;52.748;13.452;2023-07-20T09:38:54;20.00;99.90
25332;DHT22;13284;52.748;13.452;2023-07-20T09:41:21;20.00;99.90
25332;DHT22;13284;52.748;13.452;2023-07-20T09:43:47;20.20;99.90
25332;DHT22;13284;52.748;13.452;2023-07-20T09:46:12;20.20;99.90
25332;DHT22;13284;52.748;13.452;2023-07-20T09:48:38;20.20;99.90
25332;DHT22;13284;52.748;13.452;2023-07-20T09:51:05;20.00;99.90
25332;DHT22;13284;52.748;13.452;2023-07-20T09:53:33;20.10;99.90
25332;DHT22;13284;52.748;13.452;2023-07-20T09:55:59;20.10;99.90
25332;DHT22;13284;52.748;13.452;2023-07-20T09:58:26;20.40;99.90
25332;DHT22;13284;52.748;13.452;2023-07-20T10:00:54;20.30;99.90
25332;DHT22;13284;52.748;13.452;2023-07-20T10:03:28;20.10;99.90
25332;DHT22;13284;52.748;13.452;2023-07-20T10:05:57;19.90;99.90
25332;DHT22;13284;52.748;13.452;2023-07-20T10:08:29;19.80;99.90
25332;DHT22;13284;52.748;13.452;2023-07-20T10:10:57;19.70;99.90
25332;DHT22;13284;52.748;13.452;2023-07-20T10:13:27;19.80;99.90
25332;DHT22;13284;52.748;13.452;2023-07-20T10:15:56;19.90;99.90
25332;DHT22;13284;52.748;13.452;2023-07-20T10:18:27;19.90;99.90
25332;DHT22;13284;52.748;13.452;2023-07-20T10:20:55;20.40;99.90
25332;DHT22;13284;52.748;13.452;2023-07-20T10:23:22;20.80;99.90
25332;DHT22;13284;52.748;13.452;2023-07-20T10:25:50;20.80;99.90
25332;DHT22;13284;52.748;13.452;2023-07-20T10:28:16;20.50;99.90
25332;DHT22;13284;52.748;13.452;2023-07-20T10:30:42;20.50;99.90
25332;DHT22;13284;52.748;13.452;2023-07-20T10:33:09;20.60;99.90
25332;DHT22;13284;52.748;13.452;2023-07-20T10:35:57;21.00;99.90
25332;DHT22;13284;52.748;13.452;2023-07-20T10:41:20;21.90;99.90
25332;DHT22;13284;52.748;13.452;2023-07-20T10:43:47;21.90;99.90
25332;DHT22;13284;52.748;13.452;2023-07-20T10:46:13;21.60;99.90
25332;DHT22;13284;52.748;13.452;2023-07-20T10:48:58;21.20;99.90
25332;DHT22;13284;52.748;13.452;2023-07-20T10:51:24;21.70;99.90
25332;DHT22;13284;52.748;13.452;2023-07-20T10:53:50;21.20;99.90
25332;DHT22;13284;52.748;13.452;2023-07-20T10:56:20;21.20;99.90
25332;DHT22;13284;52.748;13.452;2023-07-20T10:58:45;21.80;99.90
25332;DHT22;13284;52.748;13.452;2023-07-20T11:01:17;22.20;99.90
25332;DHT22;13284;52.748;13.452;2023-07-20T11:03:43;22.70;99.90
25332;DHT22;13284;52.748;13.452;2023-07-20T11:06:35;22.40;99.90
25332;DHT22;13284;52.748;13.452;2023-07-20T11:09:15;22.20;99.90
25332;DHT22;13284;52.748;13.452;2023-07-20T11:11:50;21.60;99.90
25332;DHT22;13284;52.748;13.452;2023-07-20T11:14:26;21.60;99.90
25332;DHT22;13284;52.748;13.452;2023-07-20T11:16:52;21.30;99.90
25332;DHT22;13284;52.748;13.452;2023-07-20T11:19:20;21.70;99.90
25332;DHT22;13284;52.748;13.452;2023-07-20T11:21:54;21.50;99.90
25332;DHT22;13284;52.748;13.452;2023-07-20T11:24:21;21.40;99.90
25332;DHT22;13284;52.748;13.452;2023-07-20T11:26:53;21.90;99.90
25332;DHT22;13284;52.748;13.452;2023-07-20T11:29:21;22.90;99.90
25332;DHT22;13284;52.748;13.452;2023-07-20T11:31:48;23.20;99.90
25332;DHT22;13284;52.748;13.452;2023-07-20T11:34:18;23.30;99.90
25332;DHT22;13284;52.748;13.452;2023-07-20T11:36:46;23.30;99.90
25332;DHT22;13284;52.748;13.452;2023-07-20T11:39:17;22.60;99.90
25332;DHT22;13284;52.748;13.452;2023-07-20T11:41:49;22.00;99.90
25332;DHT22;13284;52.748;13.452;2023-07-20T11:44:22;21.40;99.90
25332;DHT22;13284;52.748;13.452;2023-07-20T11:47:10;21.10;99.90
25332;DHT22;13284;52.748;13.452;2023-07-20T11:49:43;21.50;99.90
25332;DHT22;13284;52.748;13.452;2023-07-20T11:52:15;22.00;99.90
25332;DHT22;13284;52.748;13.452;2023-07-20T11:54:42;22.00;99.90
25332;DHT22;13284;52.748;13.452;2023-07-20T11:57:19;22.00;99.90
25332;DHT22;13284;52.748;13.452;2023-07-20T11:59:54;22.30;99.90
25332;DHT22;13284;52.748;13.452;2023-07-20T12:02:23;22.50;99.90
25332;DHT22;13284;52.748;13.452;2023-07-20T12:04:51;22.50;99.90
25332;DHT22;13284;52.748;13.452;2023-07-20T12:07:18;22.10;99.90
25332;DHT22;13284;52.748;13.452;2023-07-20T12:09:44;22.10;99.90
25332;DHT22;13284;52.748;13.452;2023-07-20T12:12:10;21.90;99.90
25332;DHT22;13284;52.748;13.452;2023-07-20T12:14:39;22.00;99.90
25332;DHT22;13284;52.748;13.452;2023-07-20T12:17:08;22.90;99.90
25332;DHT22;13284;52.748;13.452;2023-07-20T12:19:38;23.50;99.90
25332;DHT22;13284;52.748;13.452;2023-07-20T12:22:04;24.00;99.90
25332;DHT22;13284;52.748;13.452;2023-07-20T12:24:31;24.60;99.90
25332;DHT22;13284;52.748;13.452;2023-07-20T12:26:57;24.60;99.90
25332;DHT22;13284;52.748;13.452;2023-07-20T12:29:23;24.60;99.90
25332;DHT22;13284;52.748;13.452;2023-07-20T12:31:49;24.60;99.90
25332;DHT22;13284;52.748;13.452;2023-07-20T12:34:14;24.80;99.90
25332;DHT22;13284;52.748;13.452;2023-07-20T12:36:40;25.00;99.90
25332;DHT22;13284;52.748;13.452;2023-07-20T12:39:05;25.20;98.50
25332;DHT22;13284;52.748;13.452;2023-07-20T12:41:31;24.70;98.60
25332;DHT22;13284;52.748;13.452;2023-07-20T12:43:56;24.30;98.70
25332;DHT22;13284;52.748;13.452;2023-07-20T12:46:23;24.20;98.70
25332;DHT22;13284;52.748;13.452;2023-07-20T12:48:49;24.90;97.90
25332;DHT22;13284;52.748;13.452;2023-07-20T12:51:15;25.20;97.20
25332;DHT22;13284;52.748;13.452;2023-07-20T12:53:40;24.70;96.70
25332;DHT22;13284;52.748;13.452;2023-07-20T12:56:06;24.70;96.90
25332;DHT22;13284;52.748;13.452;2023-07-20T12:58:31;25.50;96.70
25332;DHT22;13284;52.748;13.452;2023-07-20T13:00:57;25.30;96.40
25332;DHT22;13284;52.748;13.452;2023-07-20T13:03:22;25.70;96.70
25332;DHT22;13284;52.748;13.452;2023-07-20T13:05:48;26.10;96.10
25332;DHT22;13284;52.748;13.452;2023-07-20T13:08:15;25.80;95.80
25332;DHT22;13284;52.748;13.452;2023-07-20T13:10:41;25.80;95.80
25332;DHT22;13284;52.748;13.452;2023-07-20T13:13:07;25.70;96.40
25332;DHT22;13284;52.748;13.452;2023-07-20T13:15:40;25.20;95.80
25332;DHT22;13284;52.748;13.452;2023-07-20T13:18:06;25.30;95.80
25332;DHT22;13284;52.748;13.452;2023-07-20T13:20:31;24.50;96.00
25332;DHT22;13284;52.748;13.452;2023-07-20T13:22:57;24.70;97.00
25332;DHT22;13284;52.748;13.452;2023-07-20T13:25:23;24.80;96.60
25332;DHT22;13284;52.748;13.452;2023-07-20T13:27:48;24.50;96.60
25332;DHT22;13284;52.748;13.452;2023-07-20T13:30:14;23.80;96.60
25332;DHT22;13284;52.748;13.452;2023-07-20T13:32:45;23.40;98.00
25332;DHT22;13284;52.748;13.452;2023-07-20T13:35:14;23.40;98.10
25332;DHT22;13284;52.748;13.452;2023-07-20T13:37:40;24.00;98.40
25332;DHT22;13284;52.748;13.452;2023-07-20T13:40:06;24.20;98.80
25332;DHT22;13284;52.748;13.452;2023-07-20T13:42:32;24.60;98.20
25332;DHT22;13284;52.748;13.452;2023-07-20T13:44:58;24.90;97.40
25332;DHT22;13284;52.748;13.452;2023-07-20T13:47:23;24.70;96.50
25332;DHT22;13284;52.748;13.452;2023-07-20T13:49:49;24.60;97.30
25332;DHT22;13284;52.748;13.452;2023-07-20T13:52:15;24.30;96.60
25332;DHT22;13284;52.748;13.452;2023-07-20T13:54:41;23.90;97.20
25332;DHT22;13284;52.748;13.452;2023-07-20T13:57:06;24.20;97.20
25332;DHT22;13284;52.748;13.452;2023-07-20T13:59:32;24.00;96.60
25332;DHT22;13284;52.748;13.452;2023-07-20T14:01:57;23.80;97.10
25332;DHT22;13284;52.748;13.452;2023-07-20T14:04:23;23.40;97.50
25332;DHT22;13284;52.748;13.452;2023-07-20T14:06:48;23.60;98.10
25332;DHT22;13284;52.748;13.452;2023-07-20T14:09:14;23.90;97.90
25332;DHT22;13284;52.748;13.452;2023-07-20T14:11:40;24.40;97.90
25332;DHT22;13284;52.748;13.452;2023-07-20T14:14:06;24.10;97.50
25332;DHT22;13284;52.748;13.452;2023-07-20T14:16:32;23.70;97.10
25332;DHT22;13284;52.748;13.452;2023-07-20T14:18:57;23.20;97.40
25332;DHT22;13284;52.748;13.452;2023-07-20T14:21:23;23.20;98.40
25332;DHT22;13284;52.748;13.452;2023-07-20T14:23:51;22.80;98.50
25332;DHT22;13284;52.748;13.452;2023-07-20T14:26:17;23.50;98.10
25332;DHT22;13284;52.748;13.452;2023-07-20T14:28:43;23.50;97.50
25332;DHT22;13284;52.748;13.452;2023-07-20T14:31:08;23.40;97.00
25332;DHT22;13284;52.748;13.452;2023-07-20T14:33:34;23.00;97.30
25332;DHT22;13284;52.748;13.452;2023-07-20T14:36:00;23.00;98.10
25332;DHT22;13284;52.748;13.452;2023-07-20T14:38:28;22.80;98.10
25332;DHT22;13284;52.748;13.452;2023-07-20T14:40:54;23.20;98.40
25332;DHT22;13284;52.748;13.452;2023-07-20T14:43:20;23.80;98.30
25332;DHT22;13284;52.748;13.452;2023-07-20T14:45:45;24.10;98.10
25332;DHT22;13284;52.748;13.452;2023-07-20T14:48:11;24.40;95.70
25332;DHT22;13284;52.748;13.452;2023-07-20T14:50:36;24.30;96.10
25332;DHT22;13284;52.748;13.452;2023-07-20T14:53:02;24.10;96.50
25332;DHT22;13284;52.748;13.452;2023-07-20T14:55:28;23.80;96.00
25332;DHT22;13284;52.748;13.452;2023-07-20T14:57:54;23.70;96.50
25332;DHT22;13284;52.748;13.452;2023-07-20T15:00:19;23.70;96.70
25332;DHT22;13284;52.748;13.452;2023-07-20T15:02:45;23.50;96.60
25332;DHT22;13284;52.748;13.452;2023-07-20T15:05:11;23.40;97.20
25332;DHT22;13284;52.748;13.452;2023-07-20T15:07:37;23.50;97.60
25332;DHT22;13284;52.748;13.452;2023-07-20T15:10:04;23.60;98.40
25332;DHT22;13284;52.748;13.452;2023-07-20T15:12:30;23.10;97.20
25332;DHT22;13284;52.748;13.452;2023-07-20T15:15:10;22.90;97.50
25332;DHT22;13284;52.748;13.452;2023-07-20T15:17:37;22.70;97.70
25332;DHT22;13284;52.748;13.452;2023-07-20T15:20:04;22.60;98.20
25332;DHT22;13284;52.748;13.452;2023-07-20T15:22:31;22.30;98.10